Detall de PIREP

Printer-friendly versionPDF version

[2013/02/03 10:51:00]
Flight IATA:CT3216
Pilot Number:012
Company ICAO:CAT
Aircraft Type:B744/E
PAX:314
Departing Airport: LEPA
Destination Airport: EIDW
Alternate Airport:EINN
Online: VATSIM
Route:DRAGO UN863 TIRAV UT183 DEGEX UN490 TERKU UN864 EXMOR UM17 VATRY
Flight Level:F380
No Slew and time accel
No pause
Crash detect
Detect pilot in Cockpit between each 30 and 45 minutes
10:51 Zero fuel Weight: 467176 Lbs, Fuel Weight: 109246 Lbs
10:51 VATSIM:LEPA 031030Z 36015G26KT 330V030 9999 FEW024 SCT066 10/M04 Q1020 NOSIG
10:51 VATSIM:EIDW 031030Z 25021KT 6000 -DZ FEW003 BKN006 BKN011 09/08 Q1016 NOSIG
10:51 VOICE CATALONIAN
10:52 Parking Brakes off
10:54 Take-off
10:54 Take off Weight: 575218 Lbs
10:54 Wind: 352º @ 020 Knots Heading: 057º
10:54 POS N39º 32´ 57´´ E002º 44´ 55´´
10:54 Gear Up: 185 Knots
10:54 Flaps:3 at 186 Knots
10:55 Flaps:2 at 221 Knots
10:55 Flaps:1 at 228 Knots
10:55 Flaps:0 at 252 Knots
11:09 Wind:016º@110 Knots Heading: 346º Ground Speed: 391 Knots Altitude 36459 ft
11:10 TOC
11:10 Fuel Weight: 95594 Lb
11:24 Wind:016º@085 Knots Heading: 355º Ground Speed: 401 Knots Altitude 38156 ft
11:39 Wind:010º@102 Knots Heading: 358º Ground Speed: 380 Knots Altitude 38500 ft
11:54 Wind:001º@110 Knots Heading: 340º Ground Speed: 378 Knots Altitude 38500 ft
12:09 Wind:358º@107 Knots Heading: 328º Ground Speed: 388 Knots Altitude 38487 ft
12:24 Wind:346º@109 Knots Heading: 321º Ground Speed: 382 Knots Altitude 38412 ft
12:39 Wind:337º@110 Knots Heading: 356º Ground Speed: 374 Knots Altitude 38349 ft
12:54 Wind:328º@118 Knots Heading: 355º Ground Speed: 375 Knots Altitude 38198 ft
13:09 Wind:319º@117 Knots Heading: 310º Ground Speed: 362 Knots Altitude 38152 ft
13:20 TOD
13:20 Fuel Weight: 51875 Lb
13:24 Wind:323º@092 Knots Heading: 338º Ground Speed: 335 Knots Altitude 27942 ft
13:36 Flaps:1 at 221 Knots
13:37 Flaps:2 at 209 Knots
13:37 Flaps:3 at 208 Knots
13:37 Gear Down: 208 Knots
13:37 Flaps:4 at 186 Knots
13:37 Flaps:5 at 177 Knots
13:38 Flaps:6 at 160 Knots
13:39 Wind:257º@024 Knots Heading: 268º Ground Speed: 122 Knots Altitude 1194 ft
13:41 TouchDown:Rate -142 ft/min Speed: 134 Knots
13:41 VATSIM:EIDW 031330Z 25020KT 9999 FEW012 SCT022 BKN070 10/08 Q1014 WS RWY16 NOSIG
13:41 Land
13:41 Wind:258º@024 Knots
13:41 Heading: 274º
13:41 Flight Duration: 02:47
13:41 Landing Weight: 514851 Lbs
13:41 POS N53º 25´ 17´´ W006º 16´ 26´´
13:44 Parking brakes on
13:44 Block to Block Duration: 02:52
13:44 Final Fuel: 47109 Lbls
13:44 Spent Fuel: 62136 Lbls
13:44 Flight Length: 1022 NM
13:44 TOD Land Length: 95 NM

Exportar CSV

Powered by Drupal - Modified by Danger4k